createdAt,value
2022-08-04T00:02:01.402Z,23.20
2022-08-04T00:04:36.221Z,23.20
2022-08-04T00:07:44.225Z,23.10
2022-08-04T00:10:13.626Z,23.20
2022-08-04T00:12:47.139Z,23.20
2022-08-04T00:15:16.756Z,23.20
2022-08-04T00:17:55.293Z,23.20
2022-08-04T00:20:23.536Z,23.20
2022-08-04T00:22:52.798Z,23.20
2022-08-04T00:25:19.926Z,23.20
2022-08-04T00:27:47.028Z,23.20
2022-08-04T00:30:13.893Z,23.10
2022-08-04T00:32:41.819Z,23.00
2022-08-04T00:35:14.935Z,23.00
2022-08-04T00:37:44.836Z,22.90
2022-08-04T00:40:11.963Z,22.90
2022-08-04T00:42:59.073Z,22.90
2022-08-04T00:46:15.931Z,23.00
2022-08-04T00:48:49.834Z,23.00
2022-08-04T00:51:43.942Z,23.00
2022-08-04T00:54:32.582Z,23.00
2022-08-04T00:57:33.871Z,23.00
2022-08-04T01:00:11.886Z,23.00
2022-08-04T01:03:05.236Z,23.00
2022-08-04T01:05:47.316Z,23.00
2022-08-04T01:08:16.941Z,22.90
2022-08-04T01:11:02.097Z,22.90
2022-08-04T01:13:53.197Z,22.90
2022-08-04T01:16:25.107Z,22.90
2022-08-04T01:19:05.782Z,22.90
2022-08-04T01:22:00.622Z,22.80
2022-08-04T01:24:54.851Z,22.80
2022-08-04T01:27:48.474Z,22.80
2022-08-04T01:30:15.900Z,22.80
2022-08-04T01:33:00.835Z,22.80
2022-08-04T01:35:46.510Z,22.70
2022-08-04T01:38:33.806Z,22.70
2022-08-04T01:41:06.905Z,22.70
2022-08-04T01:43:40.331Z,22.50
2022-08-04T01:46:10.006Z,22.60
2022-08-04T01:48:39.495Z,22.50
2022-08-04T01:51:08.471Z,22.50
2022-08-04T01:53:38.110Z,22.50
2022-08-04T01:56:07.378Z,22.50
2022-08-04T01:58:36.310Z,22.50
2022-08-04T02:01:14.059Z,22.50
2022-08-04T02:04:18.584Z,22.50
2022-08-04T02:06:49.087Z,22.40
2022-08-04T02:09:54.516Z,22.50
2022-08-04T02:12:36.947Z,22.50
2022-08-04T02:15:25.773Z,22.50
2022-08-04T02:18:11.933Z,22.60
2022-08-04T02:20:43.308Z,22.60
2022-08-04T02:23:14.444Z,22.50
2022-08-04T02:25:48.793Z,22.50
2022-08-04T02:28:23.203Z,22.50
2022-08-04T02:31:10.332Z,22.50
2022-08-04T02:33:40.757Z,22.50
2022-08-04T02:36:10.683Z,22.50
2022-08-04T02:38:53.031Z,22.40
2022-08-04T02:41:21.775Z,22.40
2022-08-04T02:43:51.018Z,22.40
2022-08-04T02:46:20.975Z,22.40
2022-08-04T02:48:49.873Z,22.30
2022-08-04T02:51:20.323Z,22.30
2022-08-04T02:53:49.503Z,22.20
2022-08-04T02:56:19.619Z,22.20
2022-08-04T02:58:53.278Z,22.20
2022-08-04T03:01:21.906Z,22.20
2022-08-04T03:04:10.157Z,22.20
2022-08-04T03:07:14.413Z,22.20
2022-08-04T03:10:22.825Z,22.20
2022-08-04T03:13:05.385Z,22.10
2022-08-04T03:16:08.907Z,22.10
2022-08-04T03:19:04.254Z,22.10
2022-08-04T03:22:17.553Z,22.00
2022-08-04T03:24:59.227Z,22.00
2022-08-04T03:27:48.871Z,22.00
2022-08-04T03:30:20.473Z,22.00
2022-08-04T03:33:09.443Z,22.00
2022-08-04T03:36:09.934Z,21.90
2022-08-04T03:38:54.798Z,21.90
2022-08-04T03:41:54.849Z,21.80
2022-08-04T03:44:49.461Z,21.90
2022-08-04T03:47:42.316Z,21.90
2022-08-04T03:50:42.173Z,21.90
2022-08-04T03:53:40.249Z,21.80
2022-08-04T03:56:27.464Z,21.70
2022-08-04T03:59:26.260Z,21.70
2022-08-04T04:02:26.820Z,21.70
2022-08-04T04:05:18.315Z,21.70
2022-08-04T04:11:15.176Z,21.80
2022-08-04T04:14:09.263Z,21.80
2022-08-04T04:17:09.283Z,21.80
2022-08-04T04:23:06.171Z,21.70
2022-08-04T04:25:59.931Z,21.60
2022-08-04T04:31:30.063Z,21.60
2022-08-04T04:34:08.983Z,21.60
2022-08-04T04:37:03.578Z,21.60
2022-08-04T04:39:58.684Z,21.60
2022-08-04T04:42:55.141Z,21.70
2022-08-04T04:48:53.312Z,21.70
2022-08-04T04:51:36.254Z,21.80
2022-08-04T04:57:51.925Z,21.80
2022-08-04T05:00:12.436Z,21.80
2022-08-04T05:03:18.604Z,21.80
2022-08-04T05:06:07.993Z,21.90
2022-08-04T05:11:51.112Z,22.00
2022-08-04T05:14:38.144Z,22.00
2022-08-04T05:20:42.163Z,22.20
2022-08-04T05:23:29.079Z,22.30
2022-08-04T05:29:07.309Z,22.40
2022-08-04T05:31:39.473Z,22.50
2022-08-04T05:34:13.996Z,22.50
2022-08-04T05:40:06.461Z,22.60
2022-08-04T05:42:38.326Z,22.70
2022-08-04T05:45:08.230Z,22.80
2022-08-04T05:47:36.412Z,22.90
2022-08-04T05:50:06.013Z,23.00
2022-08-04T05:52:34.699Z,23.10
2022-08-04T05:55:02.566Z,23.20
2022-08-04T05:57:30.639Z,23.30
2022-08-04T05:59:59.424Z,23.40
2022-08-04T06:02:30.565Z,23.50
2022-08-04T06:04:59.458Z,23.60
2022-08-04T06:07:26.909Z,23.70
2022-08-04T06:09:54.163Z,23.80
2022-08-04T06:15:44.489Z,23.90
2022-08-04T06:19:57.717Z,24.00
2022-08-04T06:21:16.192Z,24.10
2022-08-04T06:23:58.676Z,24.10
2022-08-04T06:29:30.884Z,24.30
2022-08-04T06:32:31.378Z,24.40
2022-08-04T06:34:58.735Z,24.50
2022-08-04T06:40:31.812Z,24.60
2022-08-04T06:43:06.287Z,24.70
2022-08-04T06:45:35.889Z,24.70
2022-08-04T06:48:05.016Z,24.80
2022-08-04T06:51:24.503Z,24.80
2022-08-04T06:53:21.599Z,24.80
2022-08-04T06:55:49.230Z,24.80
2022-08-04T06:58:17.630Z,24.80
2022-08-04T07:00:46.943Z,24.90
2022-08-04T07:03:13.954Z,25.00
2022-08-04T07:05:41.740Z,25.00
2022-08-04T07:08:11.099Z,25.00
2022-08-04T07:10:37.763Z,25.20
2022-08-04T07:13:05.077Z,25.30
2022-08-04T07:15:33.767Z,25.30
2022-08-04T07:18:03.559Z,25.40
2022-08-04T07:20:35.678Z,25.40
2022-08-04T07:23:07.481Z,25.50
2022-08-04T07:25:57.289Z,25.60
2022-08-04T07:28:25.224Z,25.70
2022-08-04T07:30:53.279Z,25.90
2022-08-04T07:33:20.799Z,26.00
2022-08-04T07:36:05.854Z,26.00
2022-08-04T07:38:48.365Z,26.10
2022-08-04T07:41:38.339Z,26.20
2022-08-04T07:44:05.973Z,26.30
2022-08-04T07:46:32.726Z,26.50
2022-08-04T07:49:03.653Z,26.50
2022-08-04T07:51:31.794Z,26.60
2022-08-04T07:54:00.420Z,26.70
2022-08-04T07:56:28.345Z,26.80
2022-08-04T07:58:55.735Z,27.10
2022-08-04T08:01:24.198Z,27.20
2022-08-04T08:03:52.789Z,27.40
2022-08-04T08:06:32.219Z,27.40
2022-08-04T08:09:02.307Z,27.50
2022-08-04T08:12:36.284Z,27.60
2022-08-04T08:14:27.369Z,27.70
2022-08-04T08:16:54.301Z,27.80
2022-08-04T08:19:21.121Z,27.90
2022-08-04T08:21:59.723Z,27.90
2022-08-04T08:24:28.371Z,27.90
2022-08-04T08:26:56.725Z,28.10
2022-08-04T08:29:24.412Z,28.10
2022-08-04T08:31:55.898Z,28.20
2022-08-04T08:34:27.635Z,28.20
2022-08-04T08:37:19.843Z,28.20
2022-08-04T08:40:08.127Z,28.40
2022-08-04T08:44:05.010Z,28.50
2022-08-04T08:46:48.594Z,28.70
2022-08-04T08:50:00.474Z,28.80
2022-08-04T08:53:01.244Z,28.90
2022-08-04T08:55:58.277Z,29.20
2022-08-04T08:58:49.530Z,29.40
2022-08-04T09:01:40.240Z,29.70
2022-08-04T09:04:46.162Z,29.90
2022-08-04T09:07:21.902Z,30.10
2022-08-04T09:10:02.901Z,30.50
2022-08-04T09:13:04.292Z,30.60
2022-08-04T09:15:40.000Z,30.70
2022-08-04T09:18:25.409Z,30.80
2022-08-04T09:21:00.620Z,31.00
2022-08-04T09:23:32.294Z,31.40
2022-08-04T09:26:09.141Z,31.80
2022-08-04T09:28:54.064Z,32.20
2022-08-04T09:31:28.253Z,32.60
2022-08-04T09:34:31.378Z,32.50
2022-08-04T09:37:15.579Z,33.20
2022-08-04T09:40:07.638Z,33.40
2022-08-04T09:43:22.786Z,33.40
2022-08-04T09:46:14.849Z,33.80
2022-08-04T09:48:56.927Z,33.90
2022-08-04T09:51:57.427Z,33.80
2022-08-04T09:54:42.360Z,34.40
2022-08-04T09:57:36.598Z,34.60
2022-08-04T10:00:09.415Z,34.80
2022-08-04T10:02:42.622Z,34.80
2022-08-04T10:05:14.227Z,34.50
2022-08-04T10:08:02.090Z,34.90
2022-08-04T10:11:03.842Z,35.50
2022-08-04T10:13:59.226Z,36.20
2022-08-04T10:17:06.237Z,36.30
2022-08-04T10:19:36.780Z,36.20
2022-08-04T10:22:29.019Z,36.20
2022-08-04T10:25:05.399Z,36.50
2022-08-04T10:27:57.499Z,36.90
2022-08-04T10:30:25.956Z,37.40
2022-08-04T10:33:16.893Z,37.30
2022-08-04T10:35:54.101Z,37.50
2022-08-04T10:38:49.934Z,37.60
2022-08-04T10:41:40.065Z,37.40
2022-08-04T10:44:42.251Z,37.80
2022-08-04T10:47:18.019Z,37.70
2022-08-04T10:49:54.328Z,37.70
2022-08-04T10:52:34.335Z,37.60
2022-08-04T10:55:23.300Z,38.40
2022-08-04T10:58:18.291Z,38.10
2022-08-04T11:00:46.077Z,37.90
2022-08-04T11:03:31.335Z,37.90
2022-08-04T11:05:59.166Z,37.80
2022-08-04T11:08:35.618Z,38.30
2022-08-04T11:11:33.123Z,37.50
2022-08-04T11:14:34.375Z,37.40
2022-08-04T11:17:09.580Z,37.90
2022-08-04T11:20:18.291Z,37.90
2022-08-04T11:23:18.666Z,37.40
2022-08-04T11:25:59.135Z,37.10
2022-08-04T11:28:37.361Z,38.00
2022-08-04T11:31:21.148Z,38.60
2022-08-04T11:33:58.366Z,39.40
2022-08-04T11:36:45.691Z,40.00
2022-08-04T11:39:33.180Z,40.20
2022-08-04T11:42:10.640Z,40.00
2022-08-04T11:44:37.231Z,40.30
2022-08-04T11:47:11.259Z,40.20
2022-08-04T11:49:57.425Z,39.80
2022-08-04T11:52:28.024Z,40.50
2022-08-04T11:54:55.759Z,41.60
2022-08-04T11:57:35.399Z,41.60
2022-08-04T12:00:07.763Z,41.50
2022-08-04T12:02:55.529Z,41.30
2022-08-04T12:05:37.364Z,41.00
2022-08-04T12:08:16.508Z,40.50
2022-08-04T12:10:50.742Z,41.20
2022-08-04T12:13:48.794Z,40.90
2022-08-04T12:16:24.478Z,41.70
2022-08-04T12:19:05.844Z,42.00
2022-08-04T12:21:53.318Z,41.60
2022-08-04T12:24:31.059Z,42.40
2022-08-04T12:27:04.687Z,42.00
2022-08-04T12:29:34.507Z,42.60
2022-08-04T12:32:11.702Z,42.50
2022-08-04T12:34:46.987Z,43.10
2022-08-04T12:37:23.039Z,42.50
2022-08-04T12:40:29.151Z,42.20
2022-08-04T12:42:55.877Z,42.20
2022-08-04T12:45:26.141Z,41.80
2022-08-04T12:47:56.615Z,41.70
2022-08-04T12:50:24.175Z,41.70
2022-08-04T12:53:04.537Z,41.80
2022-08-04T12:55:35.485Z,41.00
2022-08-04T12:58:11.573Z,42.40
2022-08-04T13:00:41.824Z,43.20
2022-08-04T13:03:15.999Z,42.90
2022-08-04T13:05:44.818Z,42.80
2022-08-04T13:08:12.932Z,43.10
2022-08-04T13:10:42.289Z,43.50
2022-08-04T13:13:15.776Z,43.90
2022-08-04T13:18:33.516Z,43.60
2022-08-04T13:21:21.218Z,42.60
2022-08-04T13:24:09.534Z,42.00
2022-08-04T13:26:55.518Z,40.80
2022-08-04T13:30:00.085Z,39.60
2022-08-04T13:30:24.694Z,43.40
2022-08-04T13:32:28.640Z,39.20
2022-08-04T13:34:57.419Z,38.50
2022-08-04T13:37:34.919Z,38.10
2022-08-04T13:40:04.884Z,37.60
2022-08-04T13:42:35.661Z,37.40
2022-08-04T13:45:03.883Z,37.20
2022-08-04T13:47:37.918Z,37.10
2022-08-04T13:50:15.733Z,37.00
2022-08-04T13:52:43.709Z,36.50
2022-08-04T13:55:43.092Z,36.40
2022-08-04T13:58:24.173Z,36.40
2022-08-04T14:01:09.995Z,36.30
2022-08-04T14:03:59.427Z,36.20
2022-08-04T14:07:18.184Z,36.30
2022-08-04T14:10:03.990Z,36.40
2022-08-04T14:12:46.490Z,36.30
2022-08-04T14:16:01.599Z,36.30
2022-08-04T14:18:34.796Z,36.10
2022-08-04T14:21:08.278Z,36.10
2022-08-04T14:23:47.156Z,36.00
2022-08-04T14:26:19.447Z,36.10
2022-08-04T14:29:27.890Z,35.90
2022-08-04T14:34:33.483Z,35.90
2022-08-04T14:37:17.182Z,35.80
2022-08-04T14:40:18.266Z,35.90
2022-08-04T14:42:54.878Z,35.90
2022-08-04T14:45:35.621Z,35.90
2022-08-04T14:48:22.528Z,35.90
2022-08-04T14:50:50.815Z,36.00
2022-08-04T14:53:23.180Z,36.00
2022-08-04T14:55:56.515Z,36.00
2022-08-04T15:01:21.043Z,36.10
2022-08-04T15:03:52.157Z,36.00
2022-08-04T15:06:26.287Z,36.10
2022-08-04T15:11:48.084Z,35.80
2022-08-04T15:14:35.979Z,35.60
2022-08-04T15:17:03.045Z,35.90
2022-08-04T15:22:22.443Z,35.60
2022-08-04T15:24:55.106Z,35.50
2022-08-04T15:30:19.117Z,35.60
2022-08-04T15:32:53.127Z,35.50
2022-08-04T15:35:28.106Z,35.60
2022-08-04T15:37:59.000Z,35.50
2022-08-04T15:40:50.004Z,35.40
2022-08-04T15:43:20.942Z,35.30
2022-08-04T15:46:02.172Z,35.30
2022-08-04T15:48:40.651Z,35.20
2022-08-04T15:54:08.415Z,35.00
2022-08-04T15:56:48.318Z,34.90
2022-08-04T16:00:00.611Z,34.90
2022-08-04T16:02:39.540Z,35.00
2022-08-04T16:08:16.702Z,35.00
2022-08-04T16:10:46.416Z,35.10
2022-08-04T16:13:15.734Z,35.10
2022-08-04T16:15:42.765Z,35.10
2022-08-04T16:18:26.022Z,35.20
2022-08-04T16:21:08.193Z,35.20
2022-08-04T16:23:56.892Z,35.00
2022-08-04T16:26:54.665Z,35.00
2022-08-04T16:29:22.987Z,35.00
2022-08-04T16:32:05.268Z,34.90
2022-08-04T16:37:35.522Z,34.70
2022-08-04T16:40:40.946Z,34.50
2022-08-04T16:43:16.310Z,34.50
2022-08-04T16:46:00.186Z,34.50
2022-08-04T16:48:29.439Z,34.40
2022-08-04T16:51:05.279Z,34.30
2022-08-04T16:54:04.151Z,34.20
2022-08-04T16:56:34.395Z,34.20
2022-08-04T16:59:13.132Z,34.20
2022-08-04T17:01:47.537Z,34.20
2022-08-04T17:04:14.655Z,34.20
2022-08-04T17:06:43.175Z,34.20
2022-08-04T17:09:15.654Z,34.00
2022-08-04T17:11:43.943Z,34.00
2022-08-04T17:14:11.095Z,33.90
2022-08-04T17:16:40.815Z,33.90
2022-08-04T17:19:23.667Z,33.90
2022-08-04T17:22:00.407Z,33.90
2022-08-04T17:24:30.321Z,34.00
2022-08-04T17:26:58.870Z,33.90
2022-08-04T17:29:44.259Z,33.90
2022-08-04T17:32:19.850Z,33.80
2022-08-04T17:35:05.232Z,33.80
2022-08-04T17:37:39.915Z,33.70
2022-08-04T17:40:18.466Z,33.60
2022-08-04T17:44:04.223Z,33.60
2022-08-04T17:46:28.199Z,33.60
2022-08-04T17:49:07.586Z,33.40
2022-08-04T17:52:06.016Z,33.50
2022-08-04T17:54:38.957Z,33.40
2022-08-04T17:57:21.252Z,33.30
2022-08-04T17:59:56.372Z,33.20
2022-08-04T18:02:33.562Z,33.20
2022-08-04T18:08:45.870Z,32.90
2022-08-04T18:10:54.233Z,32.80
2022-08-04T18:13:24.131Z,32.70
2022-08-04T18:15:59.849Z,32.60
2022-08-04T18:18:26.689Z,32.50
2022-08-04T18:20:53.529Z,32.30
2022-08-04T18:23:20.290Z,32.20
2022-08-04T18:25:59.104Z,32.10
2022-08-04T18:28:28.622Z,32.10
2022-08-04T18:30:57.407Z,32.10
2022-08-04T18:33:40.454Z,31.90
2022-08-04T18:36:33.230Z,31.90
2022-08-04T18:39:13.222Z,31.80
2022-08-04T18:41:51.518Z,31.70
2022-08-04T18:44:30.949Z,31.70
2022-08-04T18:47:36.493Z,31.60
2022-08-04T18:51:00.122Z,31.50
2022-08-04T18:52:33.272Z,31.50
2022-08-04T18:55:01.918Z,31.50
2022-08-04T18:57:59.001Z,31.40
2022-08-04T19:00:17.622Z,31.30
2022-08-04T19:02:47.030Z,31.30
2022-08-04T19:05:17.193Z,31.30
2022-08-04T19:08:01.941Z,31.20
2022-08-04T19:10:31.720Z,31.20
2022-08-04T19:12:59.577Z,31.10
2022-08-04T19:15:34.235Z,31.10
2022-08-04T19:18:02.024Z,31.00
2022-08-04T19:20:30.749Z,31.00
2022-08-04T19:24:28.361Z,30.90
2022-08-04T19:28:37.177Z,30.90
2022-08-04T19:31:08.850Z,30.90
2022-08-04T19:33:58.710Z,30.90
2022-08-04T19:36:29.572Z,30.90
2022-08-04T19:48:12.269Z,30.80
2022-08-04T19:50:15.128Z,30.80
2022-08-04T19:52:45.894Z,30.70
2022-08-04T19:55:22.314Z,30.70
2022-08-04T19:57:51.121Z,30.70
2022-08-04T20:00:32.963Z,30.50
2022-08-04T20:03:00.586Z,30.40
2022-08-04T20:05:52.729Z,30.30
2022-08-04T20:08:15.366Z,30.30
2022-08-04T20:10:47.052Z,30.30
2022-08-04T20:16:30.252Z,30.10
2022-08-04T20:24:44.131Z,30.10
2022-08-04T20:27:17.871Z,30.10
2022-08-04T20:29:48.996Z,30.10
2022-08-04T20:32:19.683Z,30.10
2022-08-04T20:34:47.990Z,30.10
2022-08-04T20:37:15.563Z,30.10
2022-08-04T20:42:34.447Z,30.00
2022-08-04T20:45:02.165Z,29.90
2022-08-04T20:47:35.049Z,29.90
2022-08-04T20:50:09.026Z,29.90
2022-08-04T20:52:37.859Z,29.80
2022-08-04T20:55:06.544Z,29.80
2022-08-04T20:57:47.727Z,29.80
2022-08-04T21:00:26.419Z,29.70
2022-08-04T21:02:57.997Z,29.70
2022-08-04T21:05:26.603Z,29.60
2022-08-04T21:07:59.444Z,29.70
2022-08-04T21:10:27.350Z,29.60
2022-08-04T21:12:54.790Z,29.50
2022-08-04T21:15:25.720Z,29.40
2022-08-04T21:17:59.074Z,29.40
2022-08-04T21:20:32.362Z,29.30
2022-08-04T21:26:01.740Z,29.20
2022-08-04T21:28:29.400Z,29.20
2022-08-04T21:30:59.721Z,29.10
2022-08-04T21:33:50.000Z,29.00
2022-08-04T21:36:19.510Z,29.00
2022-08-04T21:42:19.769Z,28.80
2022-08-04T21:44:25.815Z,28.80
2022-08-04T21:46:54.708Z,28.70
2022-08-04T21:49:21.751Z,28.70
2022-08-04T21:52:00.685Z,28.70
2022-08-04T21:57:19.659Z,28.50
2022-08-04T21:59:52.041Z,28.40
2022-08-04T22:02:19.405Z,28.40
2022-08-04T22:04:48.372Z,28.30
2022-08-04T22:07:22.949Z,28.20
2022-08-04T22:10:02.320Z,28.20
2022-08-04T22:12:33.866Z,28.20
2022-08-04T22:15:23.299Z,28.20
2022-08-04T22:17:49.896Z,28.20
2022-08-04T22:23:16.701Z,28.10
2022-08-04T22:25:45.001Z,28.10
2022-08-04T22:28:28.387Z,28.10
2022-08-04T22:30:57.369Z,28.00
2022-08-04T22:33:54.379Z,28.00
2022-08-04T22:36:13.365Z,28.00
2022-08-04T22:42:03.085Z,27.90
2022-08-04T22:44:22.434Z,27.90
2022-08-04T22:46:50.829Z,27.90
2022-08-04T22:49:17.960Z,27.90
2022-08-04T22:51:50.980Z,27.90
2022-08-04T22:54:18.191Z,27.90
2022-08-04T22:56:45.577Z,27.90
2022-08-04T22:59:12.699Z,27.80
2022-08-04T23:01:59.735Z,27.80
2022-08-04T23:04:28.913Z,27.80
2022-08-04T23:09:50.022Z,27.70
2022-08-04T23:12:27.020Z,27.70
2022-08-04T23:14:58.738Z,27.70
2022-08-04T23:17:27.696Z,27.70
2022-08-04T23:19:58.805Z,27.60
2022-08-04T23:22:41.003Z,27.60
2022-08-04T23:25:15.235Z,27.50
2022-08-04T23:27:51.012Z,27.40
2022-08-04T23:30:29.452Z,27.40
2022-08-04T23:35:48.169Z,27.30
2022-08-04T23:38:30.430Z,27.20
2022-08-04T23:41:13.593Z,27.20
2022-08-04T23:43:54.896Z,27.10
2022-08-04T23:49:16.861Z,27.00
2022-08-04T23:51:43.617Z,27.00
2022-08-04T23:54:10.220Z,27.00
2022-08-04T23:56:37.836Z,27.00
2022-08-04T23:59:04.898Z,26.90
